Time;durP1;ratioP1;P1;durP2;ratioP2;P2;SDS_P1;SDS_P2;PMS_P1;PMS_P2;Temp;Humidity;BMP_temperature;BMP_pressure;BME280_temperature;BME280_humidity;BME280_pressure;Samples;Min_cycle;Max_cycle;Signal;HPM_P1;HPM_P2
2023/09/29 00:02:09;;;;;;;5.23;4.20;;;;;;;17.87;80.37;155953.47;4919290;29;20486;-81
2023/09/29 00:04:35;;;;;;;4.47;4.07;;;;;;;17.83;79.92;155944.34;4910936;29;20474;-81
2023/09/29 00:07:03;;;;;;;5.40;4.60;;;;;;;17.81;80.14;155937.84;4928052;29;20468;-82
2023/09/29 00:09:31;;;;;;;5.03;3.77;;;;;;;17.78;80.59;155930.00;4898801;29;20472;-81
2023/09/29 00:11:58;;;;;;;5.87;4.60;;;;;;;17.76;80.60;155924.81;4934481;29;20477;-82
2023/09/29 00:14:25;;;;;;;5.57;4.67;;;;;;;17.75;80.44;155922.19;4926911;29;20859;-81
2023/09/29 00:16:52;;;;;;;4.57;4.10;;;;;;;17.72;81.36;155914.38;4922429;29;20827;-81
2023/09/29 00:19:19;;;;;;;5.10;3.97;;;;;;;17.70;80.82;155909.19;4932286;29;20457;-82
2023/09/29 00:21:45;;;;;;;4.77;4.30;;;;;;;17.69;81.47;155906.56;4934089;29;20473;-81
2023/09/29 00:24:12;;;;;;;5.37;4.27;;;;;;;17.69;81.37;155906.56;4924893;29;20459;-81
2023/09/29 00:26:40;;;;;;;9.37;4.63;;;;;;;17.67;81.47;155902.69;4913337;29;20480;-82
2023/09/29 00:29:06;;;;;;;4.77;3.93;;;;;;;17.64;81.54;155896.16;4911474;29;20475;-82
2023/09/29 00:31:34;;;;;;;5.20;4.10;;;;;;;17.60;81.83;155884.47;4917708;29;20448;-82
2023/09/29 00:34:02;;;;;;;4.80;3.90;;;;;;;17.55;82.25;155871.47;4906301;29;20448;-82
2023/09/29 00:36:28;;;;;;;5.70;4.03;;;;;;;17.52;82.31;155864.91;4901727;29;20527;-82
2023/09/29 00:38:55;;;;;;;5.17;3.83;;;;;;;17.50;82.64;155858.38;4943177;29;20451;-82
2023/09/29 00:41:22;;;;;;;5.23;4.10;;;;;;;17.50;82.87;155858.38;4929292;29;20853;-81
2023/09/29 00:43:50;;;;;;;5.00;4.50;;;;;;;17.49;82.99;155855.78;4932776;29;20983;-82
2023/09/29 00:46:17;;;;;;;4.70;4.20;;;;;;;17.44;82.68;155842.75;4918450;29;20475;-81
2023/09/29 00:48:43;;;;;;;3.90;3.60;;;;;;;17.42;83.19;155837.56;4916094;29;20477;-82
2023/09/29 00:51:10;;;;;;;4.70;4.30;;;;;;;17.41;83.08;155834.94;4916224;29;20875;-81
2023/09/29 00:53:38;;;;;;;5.20;4.10;;;;;;;17.39;83.25;155829.75;4908170;29;20462;-82
2023/09/29 00:56:06;;;;;;;5.90;4.50;;;;;;;17.36;82.70;155823.25;4927483;29;20447;-82
2023/09/29 00:58:33;;;;;;;4.93;4.03;;;;;;;17.35;82.95;155819.31;4915160;29;20468;-82
2023/09/29 01:01:02;;;;;;;11.73;4.37;;;;;;;17.28;81.96;155802.41;4917267;29;20887;-82
2023/09/29 01:03:29;;;;;;;4.10;3.70;;;;;;;17.27;82.81;155799.78;4921607;29;20481;-82
2023/09/29 01:05:55;;;;;;;4.43;3.60;;;;;;;17.27;82.72;155798.47;4924407;29;20559;-82
2023/09/29 01:08:26;;;;;;;4.67;3.90;;;;;;;17.23;82.96;155789.41;4918196;29;20457;-81
2023/09/29 01:10:53;;;;;;;4.70;4.30;;;;;;;17.18;82.84;155775.09;4908662;29;20522;-82
2023/09/29 01:13:20;;;;;;;4.63;3.90;;;;;;;17.11;83.06;155758.16;4896886;29;20452;-81
2023/09/29 01:15:46;;;;;;;7.50;4.20;;;;;;;17.10;83.45;155754.25;4910632;29;20455;-82
2023/09/29 01:18:16;;;;;;;8.13;4.30;;;;;;;17.07;83.77;155747.75;4913595;29;20533;-81
2023/09/29 01:20:43;;;;;;;5.43;4.07;;;;;;;17.05;83.55;155743.81;4921973;29;20872;-81
2023/09/29 01:23:10;;;;;;;4.23;3.83;;;;;;;17.02;83.71;155736.00;4942201;29;20806;-82
2023/09/29 01:25:39;;;;;;;8.47;4.17;;;;;;;17.00;83.12;155730.81;4929039;29;20991;-82
2023/09/29 01:28:07;;;;;;;6.00;4.30;;;;;;;17.00;83.11;155730.81;4918117;29;20448;-81
2023/09/29 01:30:34;;;;;;;5.13;4.17;;;;;;;16.99;83.33;155728.25;4924179;29;20547;-82
2023/09/29 01:33:01;;;;;;;4.40;3.93;;;;;;;16.96;82.52;155720.44;4924281;29;20447;-82
2023/09/29 01:35:28;;;;;;;6.30;3.87;;;;;;;16.93;82.62;155712.63;4932342;29;20467;-81
2023/09/29 01:37:55;;;;;;;6.90;4.57;;;;;;;16.92;83.19;155708.69;4919035;29;20443;-82
2023/09/29 01:40:23;;;;;;;4.63;4.10;;;;;;;16.91;83.22;155707.44;4926049;29;20845;-82
2023/09/29 01:42:52;;;;;;;6.40;3.97;;;;;;;16.87;82.98;155697.00;4918386;29;20448;-81
2023/09/29 01:45:21;;;;;;;4.60;4.10;;;;;;;16.82;83.32;155684.00;4901203;29;20459;-81
2023/09/29 01:47:48;;;;;;;4.53;3.60;;;;;;;16.78;83.72;155672.28;4908515;29;20474;-82
2023/09/29 01:50:17;;;;;;;5.17;4.10;;;;;;;16.74;83.94;155661.88;4911982;29;20444;-81
2023/09/29 01:52:46;;;;;;;4.90;3.93;;;;;;;16.70;84.11;155651.47;4913878;29;20632;-81
2023/09/29 01:55:19;;;;;;;4.60;4.10;;;;;;;16.69;84.14;155650.16;4914208;29;20458;-82
2023/09/29 01:57:46;;;;;;;5.00;4.50;;;;;;;16.70;84.31;155652.78;4892883;29;20460;-82
2023/09/29 02:00:19;;;;;;;3.93;3.40;;;;;;;16.71;84.12;155655.34;4901824;29;20466;-82
2023/09/29 02:02:46;;;;;;;4.93;3.40;;;;;;;16.71;83.76;155654.03;4900498;29;20520;-82
2023/09/29 02:05:13;;;;;;;4.67;3.83;;;;;;;16.70;83.64;155652.78;4915845;29;20476;-82
2023/09/29 02:07:40;;;;;;;6.87;4.17;;;;;;;16.66;82.78;155642.34;4910359;29;20506;-82
2023/09/29 02:10:08;;;;;;;4.83;4.27;;;;;;;16.69;83.66;155650.16;4921943;29;20448;-82
2023/09/29 02:12:46;;;;;;;4.90;4.50;;;;;;;16.68;83.59;155647.53;4914010;29;20919;-82
2023/09/29 02:15:15;;;;;;;4.90;4.10;;;;;;;16.65;83.66;155639.78;4920651;29;20522;-82
2023/09/29 02:17:42;;;;;;;4.73;4.10;;;;;;;16.62;83.97;155630.66;4915934;29;20491;-82
2023/09/29 02:20:14;;;;;;;6.50;4.50;;;;;;;16.58;84.39;155621.53;4933398;29;20571;-82
2023/09/29 02:22:41;;;;;;;5.13;4.57;;;;;;;16.52;84.62;155605.88;4899803;29;20478;-81
2023/09/29 02:25:10;;;;;;;6.53;4.30;;;;;;;16.46;84.64;155590.28;4917967;29;20449;-81
2023/09/29 02:27:36;;;;;;;4.67;4.27;;;;;;;16.43;85.14;155583.78;4918897;29;20958;-81
2023/09/29 02:30:04;;;;;;;5.10;4.00;;;;;;;16.39;85.75;155572.06;4900736;29;20486;-82
2023/09/29 02:32:34;;;;;;;5.97;4.77;;;;;;;16.35;86.18;155561.66;4915425;29;20863;-81
2023/09/29 02:35:00;;;;;;;4.93;3.90;;;;;;;16.29;85.83;155546.06;4921119;29;20532;-82
2023/09/29 02:37:27;;;;;;;5.00;4.50;;;;;;;16.24;86.14;155534.34;4934497;29;20448;-82
2023/09/29 02:39:55;;;;;;;5.73;4.40;;;;;;;16.21;86.31;155525.25;4909960;29;20460;-81
2023/09/29 02:42:21;;;;;;;7.60;4.97;;;;;;;16.14;86.26;155508.38;4900796;29;20464;-82
2023/09/29 02:44:48;;;;;;;4.70;4.03;;;;;;;16.09;86.93;155495.38;4901417;29;20453;-81
2023/09/29 02:47:15;;;;;;;5.47;4.60;;;;;;;16.03;87.47;155478.44;4914763;29;21005;-82
2023/09/29 02:49:43;;;;;;;4.90;4.40;;;;;;;15.98;88.20;155466.75;4899811;29;20487;-81
2023/09/29 02:52:09;;;;;;;9.50;4.50;;;;;;;15.95;88.11;155457.63;4914989;29;20447;-82
2023/09/29 02:54:36;;;;;;;5.13;4.53;;;;;;;15.95;88.57;155458.94;4922016;29;20471;-82
2023/09/29 02:57:03;;;;;;;6.33;5.53;;;;;;;15.98;88.91;155465.44;4901665;29;20455;-82
2023/09/29 02:59:33;;;;;;;5.00;4.13;;;;;;;15.95;88.67;155457.63;4915614;29;20464;-82
2023/09/29 03:02:01;;;;;;;5.17;4.40;;;;;;;15.91;88.92;155447.25;4919818;29;20489;-82
2023/09/29 03:04:27;;;;;;;4.90;4.33;;;;;;;15.91;89.02;155447.25;4905055;29;20472;-82
2023/09/29 03:06:56;;;;;;;4.70;4.30;;;;;;;15.91;88.89;155447.25;4908237;29;20495;-82
2023/09/29 03:09:23;;;;;;;4.97;4.13;;;;;;;15.90;88.83;155445.94;4919279;29;20772;-82
2023/09/29 03:11:50;;;;;;;6.30;4.47;;;;;;;15.91;88.56;155447.25;4917860;29;20795;-82
2023/09/29 03:14:17;;;;;;;4.60;4.13;;;;;;;15.90;88.76;155444.63;4909707;29;20467;-82
2023/09/29 03:16:45;;;;;;;4.10;3.70;;;;;;;15.90;88.53;155445.94;4910160;29;20929;-82
2023/09/29 03:19:12;;;;;;;4.63;4.23;;;;;;;15.88;88.72;155439.44;4906588;29;20456;-82
2023/09/29 03:21:39;;;;;;;4.40;3.87;;;;;;;15.86;89.04;155435.50;4915870;29;20477;-82
2023/09/29 03:24:09;;;;;;;5.70;4.47;;;;;;;15.83;88.90;155429.03;4913224;29;21079;-82
2023/09/29 03:26:36;;;;;;;4.33;3.93;;;;;;;15.84;89.08;155430.31;4914654;29;20540;-82
2023/09/29 03:29:02;;;;;;;5.40;4.50;;;;;;;15.85;88.98;155432.94;4920671;29;21092;-81
2023/09/29 03:31:30;;;;;;;4.90;3.67;;;;;;;15.86;88.77;155434.25;4901872;29;20999;-82
2023/09/29 03:33:56;;;;;;;5.30;4.80;;;;;;;15.80;88.66;155421.25;4904087;29;20531;-82
2023/09/29 03:36:23;;;;;;;4.50;3.97;;;;;;;15.78;88.76;155414.72;4906816;29;20449;-82
2023/09/29 03:38:50;;;;;;;4.63;4.17;;;;;;;15.76;88.90;155410.84;4910633;29;20465;-82
2023/09/29 03:41:18;;;;;;;5.77;4.37;;;;;;;15.76;88.79;155410.84;4915368;29;20503;-81
2023/09/29 03:43:44;;;;;;;5.23;3.50;;;;;;;15.74;88.82;155405.66;4912500;29;20460;-82
2023/09/29 03:46:19;;;;;;;5.27;4.43;;;;;;;15.74;88.96;155405.66;4923780;29;20459;-82
2023/09/29 03:48:47;;;;;;;4.33;3.93;;;;;;;15.71;88.75;155397.84;4918407;29;20437;-82
2023/09/29 03:51:21;;;;;;;4.30;3.60;;;;;;;15.71;88.80;155397.84;4912269;29;21870;-82
2023/09/29 03:53:48;;;;;;;7.30;4.33;;;;;;;15.70;88.95;155395.22;4913834;29;20456;-82
2023/09/29 03:56:14;;;;;;;5.80;4.70;;;;;;;15.69;88.48;155392.66;4918670;29;20455;-82
2023/09/29 03:58:42;;;;;;;4.70;4.20;;;;;;;15.69;88.87;155392.66;4914834;29;20805;-82
2023/09/29 04:01:09;;;;;;;5.53;5.03;;;;;;;15.69;88.38;155391.34;4905390;29;20909;-82
2023/09/29 04:03:36;;;;;;;5.17;4.37;;;;;;;15.72;88.14;155399.16;4912432;29;20852;-83
2023/09/29 04:06:03;;;;;;;5.00;4.50;;;;;;;15.71;88.29;155396.53;4912802;29;20465;-82
2023/09/29 04:08:30;;;;;;;6.07;4.20;;;;;;;15.70;88.11;155393.97;4912519;29;21042;-82
2023/09/29 04:10:57;;;;;;;4.70;3.93;;;;;;;15.66;88.13;155383.53;4909865;29;20480;-83
2023/09/29 04:13:23;;;;;;;6.00;5.40;;;;;;;15.66;87.92;155383.53;4914536;29;20468;-83
2023/09/29 04:15:52;;;;;;;5.13;4.63;;;;;;;15.66;88.51;155384.84;4920928;29;20456;-83
2023/09/29 04:18:18;;;;;;;7.83;4.70;;;;;;;15.67;88.34;155387.41;4911824;29;20462;-83
2023/09/29 04:20:45;;;;;;;4.97;4.47;;;;;;;15.68;88.04;155388.72;4911391;29;20492;-82
2023/09/29 04:23:11;;;;;;;5.17;4.27;;;;;;;15.69;87.74;155391.34;4914405;29;20480;-82
2023/09/29 04:25:38;;;;;;;4.80;4.00;;;;;;;15.62;87.49;155374.41;4908184;29;20542;-82
2023/09/29 04:28:05;;;;;;;5.20;4.70;;;;;;;15.55;87.96;155356.25;4894018;29;20444;-82
2023/09/29 04:30:32;;;;;;;5.20;4.70;;;;;;;15.54;88.15;155352.38;4907073;29;20838;-82
2023/09/29 04:32:59;;;;;;;5.13;4.50;;;;;;;15.54;88.50;155352.38;4905659;29;20437;-83
2023/09/29 04:35:26;;;;;;;5.30;3.97;;;;;;;15.56;88.22;155357.56;4922185;29;20931;-82
2023/09/29 04:37:53;;;;;;;4.93;3.90;;;;;;;15.58;87.67;155362.75;4913281;29;20519;-82
2023/09/29 04:40:19;;;;;;;5.40;4.07;;;;;;;15.60;87.72;155369.22;4918843;29;20498;-82
2023/09/29 04:42:46;;;;;;;5.80;5.00;;;;;;;15.63;88.09;155377.03;4919191;29;20528;-83
2023/09/29 04:45:12;;;;;;;5.83;4.50;;;;;;;15.66;87.94;155384.84;4914075;29;20552;-83
2023/09/29 04:47:39;;;;;;;5.73;5.17;;;;;;;15.69;87.96;155391.34;4905983;29;20803;-82
2023/09/29 04:50:09;;;;;;;4.47;4.07;;;;;;;15.75;88.41;155408.22;4927603;29;21102;-82
2023/09/29 04:52:36;;;;;;;5.70;5.20;;;;;;;15.76;88.27;155410.84;4908609;29;20728;-82
2023/09/29 04:55:02;;;;;;;5.60;4.67;;;;;;;15.77;87.91;155413.47;4913909;29;20468;-83
2023/09/29 04:57:29;;;;;;;6.60;5.13;;;;;;;15.78;88.53;155416.03;4920051;29;20457;-82
2023/09/29 04:59:55;;;;;;;5.80;5.20;;;;;;;15.80;88.32;155421.25;4916447;29;20521;-83
2023/09/29 05:02:24;;;;;;;5.70;4.90;;;;;;;15.84;88.63;155430.31;4893537;29;20484;-83
2023/09/29 05:04:51;;;;;;;6.80;4.50;;;;;;;15.87;87.55;155436.81;4917933;29;20458;-83
2023/09/29 05:07:19;;;;;;;6.40;4.80;;;;;;;15.93;87.59;155453.75;4916099;29;20453;-83
2023/09/29 05:09:46;;;;;;;5.07;4.60;;;;;;;15.96;87.60;155460.25;4903340;29;20464;-83
2023/09/29 05:12:13;;;;;;;5.37;4.87;;;;;;;16.01;87.91;155473.25;4918087;29;20464;-83
2023/09/29 05:14:40;;;;;;;5.90;4.60;;;;;;;16.02;88.02;155477.13;4920470;29;20495;-83
2023/09/29 05:17:08;;;;;;;6.47;5.40;;;;;;;16.04;87.72;155482.38;4917713;29;20460;-82
2023/09/29 05:19:34;;;;;;;5.33;4.40;;;;;;;16.07;87.68;155488.88;4915868;29;20549;-81
2023/09/29 05:22:01;;;;;;;6.43;5.23;;;;;;;16.07;86.70;155488.88;4906603;29;20500;-82
2023/09/29 05:24:29;;;;;;;5.27;4.77;;;;;;;16.09;87.51;155494.06;4920148;29;20464;-82
2023/09/29 05:26:55;;;;;;;5.07;4.53;;;;;;;16.09;87.37;155495.38;4918633;29;20479;-82
2023/09/29 05:29:22;;;;;;;5.57;5.07;;;;;;;16.10;87.16;155496.63;4912020;29;20519;-81
2023/09/29 05:31:48;;;;;;;5.53;4.90;;;;;;;16.14;86.97;155508.38;4924146;29;21309;-82
2023/09/29 05:34:15;;;;;;;5.20;4.57;;;;;;;16.18;86.92;155517.44;4918991;29;20460;-82
2023/09/29 05:36:41;;;;;;;5.53;5.00;;;;;;;16.22;87.41;155529.16;4913820;29;20995;-82
2023/09/29 05:39:08;;;;;;;5.43;4.90;;;;;;;16.25;86.57;155535.66;4899134;29;20452;-82
2023/09/29 05:41:37;;;;;;;5.47;4.97;;;;;;;16.26;87.47;155538.25;4915619;29;20464;-82
2023/09/29 05:44:04;;;;;;;6.17;5.40;;;;;;;16.30;87.36;155548.66;4922212;29;20611;-82
2023/09/29 05:46:30;;;;;;;5.53;4.93;;;;;;;16.30;87.33;155548.66;4903046;29;20460;-82
2023/09/29 05:48:57;;;;;;;5.77;5.10;;;;;;;16.35;87.38;155561.66;4921944;29;20461;-82
2023/09/29 05:51:24;;;;;;;5.30;4.80;;;;;;;16.38;87.03;155570.78;4917962;29;20460;-82
2023/09/29 05:53:50;;;;;;;7.53;4.87;;;;;;;16.40;86.75;155574.66;4917506;29;20483;-82
2023/09/29 05:56:17;;;;;;;6.60;5.20;;;;;;;16.46;86.79;155590.28;4902101;29;20495;-82
2023/09/29 05:58:44;;;;;;;5.87;4.80;;;;;;;16.47;86.79;155592.88;4918700;29;20457;-82
2023/09/29 06:01:12;;;;;;;5.27;4.77;;;;;;;16.49;86.81;155598.09;4914267;29;20491;-82
2023/09/29 06:03:40;;;;;;;7.73;5.03;;;;;;;16.52;86.25;155605.88;4918484;29;20613;-82
2023/09/29 06:06:08;;;;;;;6.03;5.40;;;;;;;16.57;85.92;155617.66;4902696;29;20461;-82
2023/09/29 06:08:36;;;;;;;6.53;4.97;;;;;;;16.68;85.52;155646.28;4901893;29;20464;-82
2023/09/29 06:11:03;;;;;;;6.60;5.67;;;;;;;16.91;84.79;155707.44;4916506;29;20457;-83
2023/09/29 06:13:34;;;;;;;5.30;4.70;;;;;;;17.13;84.62;155762.06;4914191;29;20444;-82
2023/09/29 06:16:03;;;;;;;5.90;5.30;;;;;;;17.31;83.88;155808.91;4914479;29;20864;-81
2023/09/29 06:18:30;;;;;;;6.97;5.07;;;;;;;17.35;83.40;155819.31;4916141;29;20528;-82
2023/09/29 06:20:57;;;;;;;5.43;4.67;;;;;;;17.34;82.29;155816.72;4912658;29;20460;-82
2023/09/29 06:23:23;;;;;;;5.47;4.83;;;;;;;17.31;82.62;155810.22;4910409;29;20476;-82
2023/09/29 06:25:57;;;;;;;7.43;5.57;;;;;;;17.26;83.26;155795.91;4900196;29;20471;-82
2023/09/29 06:28:24;;;;;;;5.50;4.80;;;;;;;17.20;83.18;155781.59;4924425;29;20524;-83
2023/09/29 06:30:51;;;;;;;5.60;4.90;;;;;;;17.21;83.34;155784.16;4911774;29;20453;-83
2023/09/29 06:33:19;;;;;;;7.60;5.23;;;;;;;17.28;83.60;155802.41;4893731;29;20445;-83
2023/09/29 06:35:46;;;;;;;9.53;4.93;;;;;;;17.43;83.41;155840.13;4914352;29;20797;-83
2023/09/29 06:38:12;;;;;;;5.20;4.70;;;;;;;17.61;83.01;155887.03;4909099;29;20532;-82
2023/09/29 06:40:39;;;;;;;10.67;4.70;;;;;;;17.78;82.00;155930.00;4895002;29;20455;-81
2023/09/29 06:43:06;;;;;;;5.23;4.77;;;;;;;17.86;81.26;155952.16;4912757;29;20571;-82
2023/09/29 06:45:33;;;;;;;5.37;4.87;;;;;;;17.89;80.98;155959.97;4921547;29;20992;-82
2023/09/29 06:48:05;;;;;;;5.23;4.40;;;;;;;17.90;81.00;155961.25;4902127;29;20465;-83
2023/09/29 06:50:33;;;;;;;5.23;4.73;;;;;;;17.89;81.00;155958.66;4916307;29;20548;-82
2023/09/29 06:53:00;;;;;;;6.20;5.60;;;;;;;18.16;81.06;156029.00;4916517;29;20454;-82
2023/09/29 06:55:27;;;;;;;6.80;5.40;;;;;;;18.48;79.50;156112.38;4919946;29;20535;-82
2023/09/29 06:57:55;;;;;;;7.67;5.33;;;;;;;18.68;77.89;156164.50;4901583;29;20796;-82
2023/09/29 07:00:22;;;;;;;5.83;4.63;;;;;;;18.75;76.69;156181.41;4903389;29;20467;-82
2023/09/29 07:02:48;;;;;;;5.60;4.90;;;;;;;18.74;77.81;156180.09;4933984;29;21012;-82
2023/09/29 07:05:15;;;;;;;7.13;4.53;;;;;;;18.66;77.54;156158.00;4906523;29;20459;-83
2023/09/29 07:07:43;;;;;;;5.53;5.03;;;;;;;18.58;76.90;156137.13;4917326;29;21032;-82
2023/09/29 07:10:11;;;;;;;5.53;4.90;;;;;;;18.53;77.34;156124.13;4934075;29;20523;-82
2023/09/29 07:12:37;;;;;;;5.40;4.87;;;;;;;18.49;79.13;156113.66;4937317;29;20451;-82
2023/09/29 07:15:04;;;;;;;5.60;5.00;;;;;;;18.45;78.00;156103.22;4921080;29;20459;-83
2023/09/29 07:17:31;;;;;;;5.77;4.80;;;;;;;18.43;78.31;156097.97;4939432;29;20460;-83
2023/09/29 07:19:58;;;;;;;5.80;5.07;;;;;;;18.43;78.40;156097.97;4917688;29;20462;-83
2023/09/29 07:22:24;;;;;;;6.13;5.17;;;;;;;18.43;79.44;156097.97;4923348;29;20979;-82
2023/09/29 07:24:57;;;;;;;5.70;5.20;;;;;;;18.45;79.69;156104.53;4937941;29;20483;-82
2023/09/29 07:27:24;;;;;;;7.60;5.97;;;;;;;18.49;80.36;156113.66;4923152;29;20520;-83
2023/09/29 07:29:51;;;;;;;8.90;5.33;;;;;;;18.48;79.83;156112.38;4935107;29;20451;-82
2023/09/29 07:32:17;;;;;;;6.80;4.80;;;;;;;18.54;80.37;156126.69;4938468;29;20459;-83
2023/09/29 07:34:44;;;;;;;7.90;5.60;;;;;;;18.58;79.60;156137.13;4919699;29;21272;-81
2023/09/29 07:37:11;;;;;;;6.43;5.73;;;;;;;18.62;79.95;156147.53;4908256;29;20554;-81
2023/09/29 07:39:38;;;;;;;6.80;5.50;;;;;;;18.63;79.41;156150.16;4944262;29;20462;-81
2023/09/29 07:42:05;;;;;;;6.33;5.73;;;;;;;18.68;80.22;156163.19;4940158;29;20459;-81
2023/09/29 07:44:32;;;;;;;8.40;5.83;;;;;;;18.68;79.84;156164.50;4937550;29;21018;-81
2023/09/29 07:46:59;;;;;;;8.13;5.30;;;;;;;18.68;80.36;156163.19;4929737;29;20962;-81
2023/09/29 07:49:25;;;;;;;7.40;5.50;;;;;;;18.66;80.44;156158.00;4921674;29;20547;-81
2023/09/29 07:51:52;;;;;;;6.60;4.90;;;;;;;18.64;80.51;156154.06;4904278;29;20460;-81
2023/09/29 07:54:20;;;;;;;6.90;5.80;;;;;;;18.64;80.80;156152.75;4925591;29;20991;-82
2023/09/29 07:56:49;;;;;;;6.37;5.10;;;;;;;18.70;80.61;156169.69;4921937;29;20494;-81
2023/09/29 07:59:18;;;;;;;11.83;5.40;;;;;;;18.77;81.92;156186.66;4940240;29;20454;-81
2023/09/29 08:01:49;;;;;;;6.53;5.90;;;;;;;18.88;81.79;156214.03;4919722;29;20483;-81
2023/09/29 08:04:16;;;;;;;5.93;4.70;;;;;;;18.98;81.29;156240.06;4935370;29;20744;-81
2023/09/29 08:06:42;;;;;;;6.00;5.00;;;;;;;19.06;80.84;156262.19;4939785;29;20464;-81
2023/09/29 08:09:12;;;;;;;9.03;5.67;;;;;;;19.12;81.10;156277.84;4940007;29;20463;-81
2023/09/29 08:11:39;;;;;;;7.30;5.40;;;;;;;19.16;81.30;156288.28;4936922;29;20455;-82
2023/09/29 08:14:06;;;;;;;8.73;5.77;;;;;;;19.23;80.88;156306.53;4920955;29;20464;-82
2023/09/29 08:16:34;;;;;;;6.13;5.00;;;;;;;19.33;81.11;156332.56;4922526;29;20463;-81
2023/09/29 08:19:00;;;;;;;6.13;5.00;;;;;;;19.63;80.46;156409.53;4934737;29;20603;-81
2023/09/29 08:21:27;;;;;;;6.00;5.40;;;;;;;19.94;79.22;156489.06;4922117;29;20554;-81
2023/09/29 08:23:53;;;;;;;8.33;5.83;;;;;;;20.13;77.81;156537.31;4922429;29;20579;-81
2023/09/29 08:26:20;;;;;;;9.13;5.50;;;;;;;20.18;77.17;156551.66;4906178;29;20464;-81
2023/09/29 08:28:46;;;;;;;6.73;5.30;;;;;;;20.21;77.69;156559.50;4917766;29;20447;-80
2023/09/29 08:31:13;;;;;;;8.97;5.47;;;;;;;20.21;77.01;156558.19;4939637;29;20462;-82
2023/09/29 08:33:41;;;;;;;9.33;5.13;;;;;;;20.25;76.96;156568.69;4923625;29;20454;-81
2023/09/29 08:36:08;;;;;;;5.73;5.10;;;;;;;20.35;76.89;156596.06;4939159;29;20463;-82
2023/09/29 08:38:34;;;;;;;8.00;5.53;;;;;;;20.43;76.43;156616.94;4936902;29;20741;-81
2023/09/29 08:41:03;;;;;;;5.77;5.07;;;;;;;20.49;76.25;156632.56;4940081;29;20880;-81
2023/09/29 08:43:31;;;;;;;6.07;5.17;;;;;;;20.56;76.26;156649.53;4921003;29;20488;-81
2023/09/29 08:45:59;;;;;;;6.07;5.30;;;;;;;20.65;76.69;156673.03;4917018;29;20463;-81
2023/09/29 08:48:27;;;;;;;6.03;4.90;;;;;;;20.74;75.99;156695.19;4922191;29;21216;-81
2023/09/29 08:50:56;;;;;;;6.00;4.80;;;;;;;20.85;76.85;156723.91;4939296;29;20464;-81
2023/09/29 08:53:23;;;;;;;5.67;5.17;;;;;;;20.97;75.71;156755.25;4939941;29;20459;-80
2023/09/29 08:55:50;;;;;;;6.37;5.57;;;;;;;21.09;74.80;156786.59;4915859;29;20456;-80
2023/09/29 08:58:17;;;;;;;6.07;4.60;;;;;;;21.14;75.02;156800.94;4920547;29;20467;-81
2023/09/29 09:00:43;;;;;;;9.00;4.60;;;;;;;21.16;74.31;156804.84;4936072;29;20460;-82
2023/09/29 09:03:10;;;;;;;5.57;5.07;;;;;;;21.23;73.55;156823.16;4920436;29;21049;-81
2023/09/29 09:05:36;;;;;;;8.07;4.87;;;;;;;21.29;74.38;156838.78;4917918;29;20779;-82
2023/09/29 09:08:05;;;;;;;5.43;4.90;;;;;;;21.35;74.67;156854.44;4922752;29;20464;-81
2023/09/29 09:10:32;;;;;;;5.90;4.63;;;;;;;21.48;73.98;156888.38;4905528;29;20491;-81
2023/09/29 09:12:59;;;;;;;5.57;4.73;;;;;;;21.56;73.63;156909.28;4917821;29;20458;-81
2023/09/29 09:15:26;;;;;;;6.50;4.57;;;;;;;21.60;73.88;156919.75;4916900;29;20491;-81
2023/09/29 09:17:53;;;;;;;5.30;4.50;;;;;;;21.66;72.37;156935.38;4905273;29;20456;-81
2023/09/29 09:20:20;;;;;;;5.40;4.70;;;;;;;21.79;72.36;156968.00;4938586;29;20848;-81
2023/09/29 09:22:57;;;;;;;6.20;4.40;;;;;;;21.91;72.08;156998.09;4933371;29;20772;-81
2023/09/29 09:25:34;;;;;;;5.13;4.00;;;;;;;22.01;71.33;157025.53;4937038;29;20456;-80
2023/09/29 09:28:01;;;;;;;5.60;4.30;;;;;;;22.14;70.08;157058.16;4902758;29;20558;-81
2023/09/29 09:30:28;;;;;;;4.73;4.20;;;;;;;22.29;67.84;157098.63;4918746;29;20949;-81
2023/09/29 09:32:55;;;;;;;4.90;4.40;;;;;;;22.49;67.67;157149.59;4906396;29;20447;-81
2023/09/29 09:35:25;;;;;;;4.00;3.70;;;;;;;22.68;66.15;157199.31;4931337;29;20460;-81
2023/09/29 09:37:52;;;;;;;4.30;3.90;;;;;;;22.82;66.03;157234.59;4929882;29;20470;-81
2023/09/29 09:40:19;;;;;;;5.10;4.43;;;;;;;22.85;65.46;157243.69;4919222;29;21020;-81
2023/09/29 09:42:48;;;;;;;5.10;4.60;;;;;;;23.00;64.55;157282.94;4918882;29;20484;-81
2023/09/29 09:45:14;;;;;;;4.10;3.70;;;;;;;23.15;64.11;157319.47;4910636;29;20458;-82
2023/09/29 09:47:41;;;;;;;4.07;3.67;;;;;;;23.34;62.21;157369.16;4918578;29;20466;-82
2023/09/29 09:50:11;;;;;;;6.33;3.90;;;;;;;23.54;60.70;157421.47;4906244;29;20490;-81
2023/09/29 09:52:40;;;;;;;5.20;4.03;;;;;;;23.75;59.19;157476.38;4936520;29;20804;-81
2023/09/29 09:55:12;;;;;;;4.10;3.70;;;;;;;24.01;58.62;157543.09;4916799;29;21082;-82
2023/09/29 09:57:43;;;;;;;7.43;3.90;;;;;;;24.13;58.54;157575.81;4936346;29;20467;-82
2023/09/29 10:00:12;;;;;;;4.30;3.90;;;;;;;24.19;57.91;157591.53;4938189;29;20452;-81
2023/09/29 10:02:41;;;;;;;4.93;4.23;;;;;;;24.30;57.29;157617.66;4905950;29;20478;-82
2023/09/29 10:05:13;;;;;;;3.70;3.40;;;;;;;24.36;57.29;157633.38;4903507;29;20475;-81
2023/09/29 10:07:45;;;;;;;5.50;3.60;;;;;;;24.38;58.72;157639.91;4903080;29;20954;-81
2023/09/29 10:10:12;;;;;;;4.17;3.23;;;;;;;24.26;57.60;157607.19;4916807;29;20499;-81
2023/09/29 10:12:38;;;;;;;3.60;3.20;;;;;;;24.22;58.11;157599.31;4914874;29;20471;-81
2023/09/29 10:15:15;;;;;;;4.10;3.60;;;;;;;24.13;57.61;157575.81;4936706;29;20452;-81
2023/09/29 10:17:43;;;;;;;6.97;3.50;;;;;;;24.23;57.44;157601.97;4933372;29;20478;-81
2023/09/29 10:20:20;;;;;;;4.37;3.90;;;;;;;24.27;57.36;157609.81;4915997;29;20558;-81
2023/09/29 10:22:47;;;;;;;3.73;2.97;;;;;;;24.30;55.78;157617.66;4904882;29;20534;-81
2023/09/29 10:25:20;;;;;;;4.33;3.03;;;;;;;24.29;58.03;157616.34;4918823;29;20475;-80
2023/09/29 10:27:49;;;;;;;3.10;2.80;;;;;;;24.26;57.57;157607.19;4935608;29;20460;-80
2023/09/29 10:30:17;;;;;;;4.63;3.07;;;;;;;24.28;58.35;157612.44;4938502;29;20938;-81
2023/09/29 10:32:48;;;;;;;5.93;4.00;;;;;;;24.30;57.17;157617.66;4936171;29;20452;-80
2023/09/29 10:35:19;;;;;;;3.87;3.50;;;;;;;24.36;57.63;157633.38;4916325;29;20464;-80
2023/09/29 10:37:49;;;;;;;4.00;3.60;;;;;;;24.45;55.99;157656.91;4915695;29;20468;-81
2023/09/29 10:40:31;;;;;;;4.37;3.97;;;;;;;24.50;56.54;157671.28;4916864;29;20975;-84
2023/09/29 10:43:01;;;;;;;5.03;3.60;;;;;;;24.62;55.16;157701.38;4912100;29;20480;-81
2023/09/29 10:45:36;;;;;;;4.80;3.70;;;;;;;24.60;56.27;157696.13;4927914;29;20517;-81
2023/09/29 10:48:05;;;;;;;3.30;2.90;;;;;;;24.60;54.99;157696.13;4920892;28;21016;-81
2023/09/29 10:50:39;;;;;;;4.27;3.87;;;;;;;24.61;57.00;157698.75;4918200;29;20443;-82
2023/09/29 10:53:06;;;;;;;4.10;3.70;;;;;;;24.62;56.40;157701.38;4935195;29;20463;-81
2023/09/29 10:55:32;;;;;;;4.97;4.17;;;;;;;24.57;54.99;157688.31;4937209;29;20551;-81
2023/09/29 10:57:59;;;;;;;3.90;3.50;;;;;;;24.51;56.58;157673.94;4905164;29;20476;-81
2023/09/29 11:00:25;;;;;;;4.30;3.90;;;;;;;24.46;56.63;157660.84;4915738;29;20830;-81
2023/09/29 11:02:54;;;;;;;4.83;3.97;;;;;;;24.44;56.75;157655.56;4935289;29;20488;-82
2023/09/29 11:05:20;;;;;;;4.73;4.17;;;;;;;24.48;55.88;157664.75;4903152;29;20477;-81
2023/09/29 11:07:49;;;;;;;5.03;4.53;;;;;;;24.56;56.16;157687.00;4913800;29;20464;-82
2023/09/29 11:10:17;;;;;;;4.93;4.53;;;;;;;24.52;56.56;157675.19;4926034;29;20462;-82
2023/09/29 11:12:46;;;;;;;5.30;4.20;;;;;;;24.52;56.82;157676.50;4919218;29;20472;-82
2023/09/29 11:15:13;;;;;;;5.40;3.80;;;;;;;24.57;57.05;157689.59;4904311;29;20490;-82
2023/09/29 11:17:45;;;;;;;6.50;4.10;;;;;;;24.62;56.63;157702.66;4914210;29;20490;-82
2023/09/29 11:20:25;;;;;;;4.37;4.00;;;;;;;24.64;57.28;157707.94;4919464;29;20453;-82
2023/09/29 11:23:06;;;;;;;4.40;4.00;;;;;;;24.56;58.31;157687.00;4904434;29;20464;-80
2023/09/29 11:25:33;;;;;;;4.37;3.97;;;;;;;24.54;58.73;157680.47;4932787;29;20475;-80
2023/09/29 11:27:59;;;;;;;5.07;3.70;;;;;;;24.50;59.95;157669.97;4918043;29;21010;-80